Time;durP1;ratioP1;P1;durP2;ratioP2;P2;SDS_P1;SDS_P2;PMS_P1;PMS_P2;Temp;Humidity;BMP_temperature;BMP_pressure;BME280_temperature;BME280_humidity;BME280_pressure;Samples;Min_cycle;Max_cycle;Signal;HPM_P1;HPM_P2
2022/02/27 00:01:33;;;;;;;24.00;19.63;;;-1.70;99.90;;;;;;5096655;28;20419;-84
2022/02/27 00:03:58;;;;;;;21.83;17.80;;;-1.70;99.90;;;;;;5105326;28;20372;-86
2022/02/27 00:06:24;;;;;;;23.00;18.00;;;-1.70;99.90;;;;;;5105698;28;20376;-86
2022/02/27 00:08:50;;;;;;;26.48;21.17;;;-1.70;99.90;;;;;;5106538;28;20376;-86
2022/02/27 00:11:16;;;;;;;22.88;18.77;;;-1.70;99.90;;;;;;5106865;28;20466;-85
2022/02/27 00:13:42;;;;;;;20.50;17.38;;;-1.70;99.90;;;;;;5088043;28;20467;-84
2022/02/27 00:16:08;;;;;;;23.27;18.05;;;-1.60;99.90;;;;;;5079551;28;20377;-84
2022/02/27 00:18:33;;;;;;;25.85;19.38;;;-1.70;99.90;;;;;;5066106;28;20453;-83
2022/02/27 00:21:00;;;;;;;24.23;18.03;;;-1.70;99.90;;;;;;5063819;28;20418;-85
2022/02/27 00:23:26;;;;;;;22.55;19.42;;;-1.70;99.90;;;;;;5084510;28;20388;-85
2022/02/27 00:25:52;;;;;;;24.80;18.98;;;-1.70;99.90;;;;;;5067075;28;20377;-83
2022/02/27 00:28:17;;;;;;;26.97;17.73;;;-1.70;99.90;;;;;;5066632;28;20436;-85
2022/02/27 00:30:43;;;;;;;21.83;17.77;;;-1.70;99.90;;;;;;5084554;28;20373;-83
2022/02/27 00:33:09;;;;;;;21.63;17.52;;;-1.70;99.90;;;;;;5084235;28;20875;-82
2022/02/27 00:35:34;;;;;;;19.67;17.42;;;-1.70;99.90;;;;;;5083940;28;20389;-83
2022/02/27 00:38:02;;;;;;;18.90;16.73;;;-1.60;99.90;;;;;;5084430;28;20361;-83
2022/02/27 00:40:29;;;;;;;17.00;15.20;;;-1.60;99.90;;;;;;5065302;28;20409;-85
2022/02/27 00:42:55;;;;;;;20.83;15.67;;;-1.60;99.90;;;;;;5067254;28;20875;-84
2022/02/27 00:45:22;;;;;;;19.88;15.68;;;-1.50;99.90;;;;;;5067439;28;20416;-85
2022/02/27 00:47:50;;;;;;;19.58;14.60;;;-1.60;99.90;;;;;;5067300;28;20404;-83
2022/02/27 00:50:17;;;;;;;19.20;14.80;;;-1.60;99.90;;;;;;5069490;28;20389;-84
2022/02/27 00:52:43;;;;;;;16.40;13.27;;;-1.60;99.90;;;;;;5056477;28;20506;-83
2022/02/27 00:55:09;;;;;;;18.20;13.00;;;-1.70;99.90;;;;;;5053056;28;20417;-84
2022/02/27 00:57:35;;;;;;;17.63;13.38;;;-1.70;99.90;;;;;;5071028;28;20378;-83
2022/02/27 01:00:01;;;;;;;15.27;12.15;;;-1.70;99.90;;;;;;5053385;28;20403;-86
2022/02/27 01:02:26;;;;;;;17.42;12.90;;;-1.70;99.90;;;;;;5071512;28;20374;-84
2022/02/27 01:04:52;;;;;;;17.35;12.55;;;-1.60;99.90;;;;;;5056809;28;20431;-87
2022/02/27 01:07:17;;;;;;;17.50;11.63;;;-1.50;99.90;;;;;;5073131;28;20725;-84
2022/02/27 01:09:43;;;;;;;16.57;12.30;;;-1.60;99.90;;;;;;5053227;28;20429;-85
2022/02/27 01:12:08;;;;;;;16.17;11.70;;;-1.70;99.90;;;;;;5053463;28;20385;-85
2022/02/27 01:14:34;;;;;;;17.90;12.67;;;-1.70;99.90;;;;;;5072509;28;20745;-85
2022/02/27 01:17:02;;;;;;;20.43;13.03;;;-1.70;99.90;;;;;;5073762;28;20473;-86
2022/02/27 01:19:29;;;;;;;15.50;12.82;;;-1.70;99.90;;;;;;5071961;28;20397;-83
2022/02/27 01:21:55;;;;;;;19.23;12.88;;;-1.80;99.90;;;;;;5053027;28;20414;-86
2022/02/27 01:24:20;;;;;;;14.73;11.73;;;-2.00;99.90;;;;;;5071858;28;20370;-84
2022/02/27 01:26:46;;;;;;;15.48;11.82;;;-2.00;99.90;;;;;;5071169;28;20882;-85
2022/02/27 01:29:12;;;;;;;15.23;10.93;;;-1.90;99.90;;;;;;5052955;28;20968;-85
2022/02/27 01:31:38;;;;;;;13.93;11.05;;;-2.00;99.90;;;;;;5071128;28;20377;-85
2022/02/27 01:34:04;;;;;;;14.82;10.52;;;-2.00;99.90;;;;;;5053118;28;20465;-81
2022/02/27 01:36:29;;;;;;;15.38;10.43;;;-2.10;99.90;;;;;;5052475;28;20488;-84
2022/02/27 01:38:55;;;;;;;13.90;9.53;;;-2.10;99.90;;;;;;5071512;28;20462;-84
2022/02/27 01:41:20;;;;;;;12.77;8.90;;;-2.10;99.90;;;;;;5052621;28;20402;-82
2022/02/27 01:43:46;;;;;;;14.52;9.45;;;-2.10;99.90;;;;;;5053501;28;20382;-85
2022/02/27 01:46:15;;;;;;;13.68;8.55;;;-2.10;99.90;;;;;;5070719;28;20485;-84
2022/02/27 01:48:40;;;;;;;13.45;9.10;;;-2.00;99.90;;;;;;5070896;28;20374;-82
2022/02/27 01:51:06;;;;;;;13.10;9.32;;;-2.00;99.90;;;;;;5070993;28;20386;-84
2022/02/27 01:53:33;;;;;;;11.93;9.10;;;-2.10;99.90;;;;;;5071544;28;20374;-84
2022/02/27 01:56:00;;;;;;;11.80;8.18;;;-2.10;99.90;;;;;;5070749;28;20404;-80
2022/02/27 01:58:30;;;;;;;14.27;9.18;;;-2.10;99.90;;;;;;5071193;28;20461;-84
2022/02/27 02:00:57;;;;;;;12.38;8.82;;;-1.90;99.90;;;;;;5052508;28;20401;-81
2022/02/27 02:03:24;;;;;;;11.93;8.30;;;-2.00;99.90;;;;;;5068907;28;20374;-83
2022/02/27 02:05:50;;;;;;;12.80;8.30;;;-2.10;99.90;;;;;;5051392;28;20806;-83
2022/02/27 02:08:16;;;;;;;12.40;8.50;;;-2.10;99.90;;;;;;5068442;28;20959;-83
2022/02/27 02:10:42;;;;;;;12.97;8.17;;;-2.00;99.90;;;;;;5067992;28;20461;-81
2022/02/27 02:13:09;;;;;;;13.77;8.48;;;-1.90;99.90;;;;;;5067700;28;20887;-82
2022/02/27 02:15:35;;;;;;;11.85;8.27;;;-1.90;99.90;;;;;;5066959;28;20379;-81
2022/02/27 02:18:00;;;;;;;9.07;7.60;;;-2.00;99.90;;;;;;5066910;28;20374;-85
2022/02/27 02:20:26;;;;;;;10.23;7.80;;;-2.10;99.90;;;;;;5067787;28;20756;-84
2022/02/27 02:22:52;;;;;;;13.93;8.40;;;-2.20;99.90;;;;;;5066305;28;20421;-82
2022/02/27 02:25:18;;;;;;;12.77;8.63;;;-2.20;99.90;;;;;;5068097;28;20382;-84
2022/02/27 02:27:43;;;;;;;12.83;9.80;;;-2.30;99.90;;;;;;5068479;28;20390;-81
2022/02/27 02:30:10;;;;;;;14.13;11.77;;;-2.30;99.90;;;;;;5069964;28;20389;-83
2022/02/27 02:32:46;;;;;;;18.65;13.65;;;-2.30;99.90;;;;;;5069569;28;20370;-82
2022/02/27 02:35:12;;;;;;;15.48;11.98;;;-2.30;99.90;;;;;;5068672;28;20740;-81
2022/02/27 02:37:37;;;;;;;16.25;12.18;;;-2.40;99.90;;;;;;5069022;28;20397;-82
2022/02/27 02:40:04;;;;;;;20.00;12.45;;;-2.40;99.90;;;;;;5067968;28;20413;-83
2022/02/27 02:42:30;;;;;;;17.00;12.45;;;-2.40;99.90;;;;;;5067637;28;20379;-81
2022/02/27 02:44:56;;;;;;;17.60;12.30;;;-2.40;99.90;;;;;;5069650;28;20381;-82
2022/02/27 02:47:21;;;;;;;13.25;11.50;;;-2.40;99.90;;;;;;5071879;28;20382;-82
2022/02/27 02:49:47;;;;;;;13.13;10.55;;;-2.40;99.90;;;;;;5068309;28;20382;-84
2022/02/27 02:52:15;;;;;;;16.33;10.65;;;-2.40;99.90;;;;;;5068653;28;20422;-81
2022/02/27 02:54:41;;;;;;;13.50;11.13;;;-2.40;99.90;;;;;;5069413;28;20453;-81
2022/02/27 02:57:07;;;;;;;13.98;10.70;;;-2.40;99.90;;;;;;5069508;28;20819;-82
2022/02/27 02:59:32;;;;;;;16.48;10.15;;;-2.50;99.90;;;;;;5069340;28;20374;-81
2022/02/27 03:01:58;;;;;;;14.30;10.82;;;-2.50;99.90;;;;;;5069143;28;20394;-83
2022/02/27 03:04:23;;;;;;;13.60;10.43;;;-2.50;99.90;;;;;;5067820;28;20382;-82
2022/02/27 03:06:49;;;;;;;11.97;9.70;;;-2.50;99.90;;;;;;5067359;28;20443;-83
2022/02/27 03:09:15;;;;;;;14.87;10.43;;;-2.50;99.90;;;;;;5068179;28;20456;-84
2022/02/27 03:11:40;;;;;;;14.13;11.07;;;-2.60;99.90;;;;;;5067515;28;20389;-84
2022/02/27 03:14:07;;;;;;;14.90;10.57;;;-2.50;99.90;;;;;;5069089;28;20382;-81
2022/02/27 03:16:32;;;;;;;14.93;9.80;;;-2.40;99.90;;;;;;5069218;28;20891;-83
2022/02/27 03:18:58;;;;;;;15.73;10.35;;;-2.40;99.90;;;;;;5067779;28;20387;-84
2022/02/27 03:21:24;;;;;;;13.52;9.80;;;-2.40;99.90;;;;;;5067021;28;20440;-82
2022/02/27 03:23:52;;;;;;;11.52;9.18;;;-2.40;99.90;;;;;;5069050;28;20382;-81
2022/02/27 03:26:18;;;;;;;15.35;9.98;;;-2.50;99.90;;;;;;5068977;28;20393;-83
2022/02/27 03:28:44;;;;;;;13.67;9.40;;;-2.50;99.90;;;;;;5068821;28;20872;-83
2022/02/27 03:31:09;;;;;;;14.40;9.90;;;-2.60;99.90;;;;;;5070021;28;20404;-83
2022/02/27 03:33:35;;;;;;;15.57;10.80;;;-2.60;99.90;;;;;;5069819;28;20370;-81
2022/02/27 03:36:01;;;;;;;15.20;10.05;;;-2.70;99.90;;;;;;5068103;28;20420;-81
2022/02/27 03:38:26;;;;;;;14.48;10.55;;;-2.70;99.90;;;;;;5070116;28;20379;-82
2022/02/27 03:40:53;;;;;;;13.40;10.63;;;-2.70;99.90;;;;;;5067760;28;20967;-84
2022/02/27 03:43:18;;;;;;;12.88;10.73;;;-2.70;99.90;;;;;;5067982;28;21485;-82
2022/02/27 03:45:44;;;;;;;14.32;10.88;;;-2.70;99.90;;;;;;5068672;28;20366;-81
2022/02/27 03:48:09;;;;;;;14.20;10.77;;;-2.70;99.90;;;;;;5067492;28;20409;-81
2022/02/27 03:50:36;;;;;;;14.02;10.95;;;-2.70;99.90;;;;;;5068801;28;20894;-84
2022/02/27 03:53:02;;;;;;;16.60;11.50;;;-2.70;99.90;;;;;;5067239;28;20400;-83
2022/02/27 03:55:27;;;;;;;14.68;11.23;;;-2.70;99.90;;;;;;5067606;28;20366;-82
2022/02/27 03:57:53;;;;;;;12.87;10.37;;;-2.80;99.90;;;;;;5068743;28;20388;-82
2022/02/27 04:00:19;;;;;;;15.27;10.87;;;-2.70;99.90;;;;;;5067203;28;20504;-82
2022/02/27 04:02:46;;;;;;;13.27;10.67;;;-2.60;99.90;;;;;;5068050;28;20373;-81
2022/02/27 04:05:17;;;;;;;12.10;9.95;;;-2.60;99.90;;;;;;5068564;28;20728;-82
2022/02/27 04:07:43;;;;;;;16.25;10.25;;;-2.70;99.90;;;;;;5068015;28;20414;-81
2022/02/27 04:10:10;;;;;;;14.13;10.20;;;-2.70;99.90;;;;;;5069339;28;20918;-81
2022/02/27 04:12:35;;;;;;;14.32;10.50;;;-2.70;99.90;;;;;;5068962;28;20405;-82
2022/02/27 04:15:02;;;;;;;16.80;10.00;;;-2.80;99.90;;;;;;5069336;28;20398;-81
2022/02/27 04:17:27;;;;;;;16.48;10.38;;;-2.70;99.90;;;;;;5068645;28;20370;-81
2022/02/27 04:19:53;;;;;;;17.60;11.07;;;-2.70;99.90;;;;;;5068647;28;20420;-82
2022/02/27 04:22:19;;;;;;;13.97;10.40;;;-2.70;99.90;;;;;;5066771;28;20426;-81
2022/02/27 04:24:44;;;;;;;15.05;9.73;;;-2.60;99.90;;;;;;5070649;28;21166;-80
2022/02/27 04:27:10;;;;;;;16.08;10.25;;;-2.60;99.90;;;;;;5081699;28;20762;-82
2022/02/27 04:29:35;;;;;;;13.38;10.50;;;-2.70;99.90;;;;;;5084248;28;20394;-80
2022/02/27 04:32:01;;;;;;;14.10;9.73;;;-2.80;99.90;;;;;;5081541;28;20374;-82
2022/02/27 04:34:27;;;;;;;16.77;11.75;;;-2.80;99.90;;;;;;5074967;28;20382;-81
2022/02/27 04:36:52;;;;;;;16.43;11.30;;;-2.80;99.90;;;;;;5072631;28;20375;-83
2022/02/27 04:39:18;;;;;;;13.43;10.90;;;-2.80;99.90;;;;;;5072621;28;20475;-80
2022/02/27 04:41:43;;;;;;;13.50;9.93;;;-2.80;99.90;;;;;;5071638;28;20402;-83
2022/02/27 04:44:09;;;;;;;18.13;10.93;;;-2.70;99.90;;;;;;5072438;28;20835;-83
2022/02/27 04:46:34;;;;;;;15.73;10.50;;;-2.70;99.90;;;;;;5072702;28;20369;-83
2022/02/27 04:49:00;;;;;;;15.85;9.90;;;-2.60;99.90;;;;;;5072375;28;20442;-82
2022/02/27 04:51:26;;;;;;;12.10;9.55;;;-2.60;99.90;;;;;;5071537;28;20362;-82
2022/02/27 04:53:51;;;;;;;14.00;9.77;;;-2.60;99.90;;;;;;5073863;28;20386;-83
2022/02/27 04:56:17;;;;;;;14.87;10.43;;;-2.60;99.90;;;;;;5072485;28;20864;-84
2022/02/27 04:58:43;;;;;;;13.38;10.00;;;-2.70;99.90;;;;;;5072035;28;20384;-80
2022/02/27 05:01:08;;;;;;;12.37;9.53;;;-2.70;99.90;;;;;;5071914;28;20402;-82
2022/02/27 05:03:34;;;;;;;12.57;10.03;;;-2.70;99.90;;;;;;5070214;28;20383;-82
2022/02/27 05:06:00;;;;;;;16.57;10.77;;;-2.70;99.90;;;;;;5071455;28;20427;-82
2022/02/27 05:08:25;;;;;;;18.67;13.90;;;-2.60;99.90;;;;;;5071243;28;20393;-83
2022/02/27 05:10:51;;;;;;;15.40;11.23;;;-2.60;99.90;;;;;;5071399;28;20826;-82
2022/02/27 05:13:16;;;;;;;18.50;12.57;;;-2.40;99.90;;;;;;5053057;28;20469;-81
2022/02/27 05:15:42;;;;;;;16.77;12.10;;;-2.30;99.90;;;;;;5072207;28;20997;-80
2022/02/27 05:18:07;;;;;;;18.92;12.15;;;-2.20;99.90;;;;;;5071283;28;20864;-83
2022/02/27 05:20:33;;;;;;;22.90;13.90;;;-2.00;99.90;;;;;;5054131;28;20464;-82
2022/02/27 05:22:59;;;;;;;38.17;21.27;;;-1.90;99.90;;;;;;5070548;28;20748;-83
2022/02/27 05:25:24;;;;;;;32.00;18.50;;;-1.80;99.90;;;;;;5071706;28;20864;-83
2022/02/27 05:27:52;;;;;;;52.13;24.03;;;-1.60;99.90;;;;;;5071441;28;20374;-83
2022/02/27 05:30:20;;;;;;;47.70;23.58;;;-1.60;99.90;;;;;;5052966;28;20374;-82
2022/02/27 05:32:47;;;;;;;86.38;24.05;;;-1.60;99.90;;;;;;5052342;28;20375;-82
2022/02/27 05:35:13;;;;;;;46.40;25.70;;;-1.40;99.90;;;;;;5036348;28;21010;-81
2022/02/27 05:37:38;;;;;;;52.77;25.07;;;-1.40;99.90;;;;;;5070451;28;20390;-81
2022/02/27 05:40:06;;;;;;;45.33;24.77;;;-1.30;99.90;;;;;;5070868;28;20421;-83
2022/02/27 05:42:33;;;;;;;58.45;25.92;;;-1.20;99.90;;;;;;5071055;28;20382;-83
2022/02/27 05:44:58;;;;;;;50.30;26.67;;;-1.20;99.90;;;;;;5053381;28;20378;-82
2022/02/27 05:47:24;;;;;;;41.10;24.10;;;-1.20;99.90;;;;;;5070566;28;20385;-83
2022/02/27 05:49:50;;;;;;;57.77;28.60;;;-1.20;99.90;;;;;;5070405;28;20374;-81
2022/02/27 05:52:15;;;;;;;55.38;28.48;;;-1.10;99.90;;;;;;5070171;28;20383;-84
2022/02/27 05:54:41;;;;;;;57.40;29.05;;;-1.10;99.90;;;;;;5069907;28;20405;-82
2022/02/27 05:57:07;;;;;;;59.65;28.10;;;-1.00;99.90;;;;;;5070353;28;20374;-81
2022/02/27 05:59:33;;;;;;;58.55;29.23;;;-1.00;99.90;;;;;;5052260;28;20409;-83
2022/02/27 06:01:58;;;;;;;52.10;28.23;;;-1.10;99.90;;;;;;5069653;28;20481;-81
2022/02/27 06:04:24;;;;;;;57.95;28.63;;;-1.10;99.90;;;;;;5070405;28;20371;-81
2022/02/27 06:06:50;;;;;;;40.00;25.65;;;-1.10;99.90;;;;;;5070353;28;20366;-84
2022/02/27 06:09:16;;;;;;;51.63;26.83;;;-1.20;99.90;;;;;;5069889;28;21011;-81
2022/02/27 06:11:41;;;;;;;45.87;26.77;;;-1.20;99.90;;;;;;5051915;28;20374;-84
2022/02/27 06:14:08;;;;;;;42.37;24.73;;;-1.20;99.90;;;;;;5052461;28;20377;-81
2022/02/27 06:16:33;;;;;;;41.13;25.27;;;-1.10;99.90;;;;;;5069865;28;20385;-83
2022/02/27 06:18:59;;;;;;;40.60;24.67;;;-1.20;99.90;;;;;;5069687;28;20366;-81
2022/02/27 06:21:25;;;;;;;41.67;25.75;;;-1.20;99.90;;;;;;5069418;28;20402;-84
2022/02/27 06:23:51;;;;;;;58.42;26.80;;;-1.20;99.90;;;;;;5051761;28;20520;-82
2022/02/27 06:26:17;;;;;;;45.92;23.33;;;-1.20;99.90;;;;;;5069640;28;20377;-82
2022/02/27 06:28:43;;;;;;;40.85;24.70;;;-1.20;99.90;;;;;;5051198;28;20375;-83
2022/02/27 06:31:09;;;;;;;47.10;25.77;;;-1.20;99.90;;;;;;5051712;28;20386;-80
2022/02/27 06:33:34;;;;;;;38.90;25.00;;;-1.20;99.90;;;;;;5070676;28;20377;-81
2022/02/27 06:36:00;;;;;;;42.55;25.30;;;-1.20;99.90;;;;;;5052081;28;20397;-84
2022/02/27 06:38:26;;;;;;;46.05;26.55;;;-1.10;99.90;;;;;;5070085;28;20385;-84
2022/02/27 06:40:51;;;;;;;36.08;23.85;;;-1.00;99.90;;;;;;5069803;28;20401;-83
2022/02/27 06:43:18;;;;;;;47.75;24.80;;;-1.00;99.90;;;;;;5070370;28;20371;-84
2022/02/27 06:45:43;;;;;;;45.72;24.55;;;-0.90;99.90;;;;;;5069558;28;20377;-81
2022/02/27 06:48:09;;;;;;;43.40;24.52;;;-0.80;99.90;;;;;;5070270;28;20366;-82
2022/02/27 06:50:34;;;;;;;37.95;23.75;;;-0.70;99.90;;;;;;5051671;28;20416;-85
2022/02/27 06:53:00;;;;;;;46.83;25.52;;;-0.80;99.90;;;;;;5050977;28;20504;-83
2022/02/27 06:55:28;;;;;;;44.70;27.17;;;-0.70;99.90;;;;;;5058254;28;20403;-84
2022/02/27 06:57:54;;;;;;;39.67;25.13;;;-0.70;99.90;;;;;;5071482;28;20482;-85
2022/02/27 07:00:20;;;;;;;39.40;24.95;;;-0.60;99.90;;;;;;5057695;28;20448;-82
2022/02/27 07:02:47;;;;;;;37.15;24.13;;;-0.50;99.90;;;;;;5068412;28;20425;-83
2022/02/27 07:05:14;;;;;;;33.88;22.95;;;-0.40;99.90;;;;;;5051949;28;20894;-85
2022/02/27 07:07:40;;;;;;;33.53;22.98;;;-0.40;99.90;;;;;;5070396;28;20783;-85
2022/02/27 07:10:07;;;;;;;38.90;25.27;;;-0.30;99.90;;;;;;5070761;28;20390;-84
2022/02/27 07:12:36;;;;;;;45.97;25.38;;;-0.20;99.90;;;;;;5069847;28;20370;-83
2022/02/27 07:15:06;;;;;;;43.83;24.23;;;-0.20;99.90;;;;;;5052498;28;20892;-84
2022/02/27 07:17:32;;;;;;;30.05;21.35;;;-0.20;99.90;;;;;;5069245;28;20382;-84
2022/02/27 07:19:57;;;;;;;27.13;20.55;;;-0.10;99.90;;;;;;5070455;28;20876;-83
2022/02/27 07:22:23;;;;;;;30.70;21.03;;;0.00;99.90;;;;;;5051581;28;20385;-84
2022/02/27 07:24:49;;;;;;;33.13;21.90;;;0.20;99.90;;;;;;5069762;28;20382;-82
2022/02/27 07:27:15;;;;;;;28.35;19.98;;;0.30;99.90;;;;;;5069964;28;20363;-82
2022/02/27 07:29:41;;;;;;;30.75;20.83;;;0.20;99.90;;;;;;5069596;28;20369;-82
2022/02/27 07:32:11;;;;;;;33.70;20.90;;;0.30;99.90;;;;;;5052784;28;20471;-82
2022/02/27 07:34:39;;;;;;;35.33;22.23;;;0.30;99.90;;;;;;5050233;28;20382;-85
2022/02/27 07:37:05;;;;;;;30.98;21.17;;;0.30;99.90;;;;;;5050401;28;20469;-82
2022/02/27 07:39:31;;;;;;;26.65;19.25;;;0.40;99.90;;;;;;5051008;28;20485;-85
2022/02/27 07:41:56;;;;;;;23.13;17.48;;;0.60;99.90;;;;;;5068702;28;20410;-83
2022/02/27 07:44:22;;;;;;;29.52;19.05;;;0.80;99.90;;;;;;5051429;28;20386;-85
2022/02/27 07:46:48;;;;;;;40.60;19.38;;;0.80;99.90;;;;;;5070124;28;20366;-81
2022/02/27 07:49:14;;;;;;;29.08;18.88;;;0.70;99.90;;;;;;5052249;28;20374;-83
2022/02/27 07:51:41;;;;;;;27.33;19.25;;;0.70;99.90;;;;;;5070144;28;20378;-84
2022/02/27 07:54:07;;;;;;;23.80;17.80;;;0.80;99.90;;;;;;5050951;28;20417;-86
2022/02/27 07:56:34;;;;;;;30.55;18.40;;;0.90;99.90;;;;;;5032157;28;20398;-86
2022/02/27 07:59:00;;;;;;;32.38;19.23;;;0.90;99.90;;;;;;5049099;28;20396;-81
2022/02/27 08:01:27;;;;;;;24.73;17.63;;;0.90;99.90;;;;;;5035011;28;20407;-82
2022/02/27 08:03:53;;;;;;;27.13;18.73;;;0.90;99.90;;;;;;5041616;28;20499;-86
2022/02/27 08:06:18;;;;;;;26.57;18.33;;;1.10;99.90;;;;;;5058650;28;20382;-82
2022/02/27 08:08:44;;;;;;;27.03;18.33;;;1.10;99.90;;;;;;5075339;28;20408;-82
2022/02/27 08:11:11;;;;;;;34.10;17.13;;;1.10;99.90;;;;;;5058577;28;20445;-84
2022/02/27 08:13:37;;;;;;;36.42;18.35;;;1.20;99.90;;;;;;5056540;28;20447;-88
2022/02/27 08:16:03;;;;;;;28.80;18.15;;;1.10;99.90;;;;;;5075491;28;20389;-82
2022/02/27 08:18:29;;;;;;;28.65;18.60;;;1.10;99.90;;;;;;5076585;28;20414;-85
2022/02/27 08:20:56;;;;;;;28.40;18.23;;;1.10;99.90;;;;;;5075003;28;20398;-82
2022/02/27 08:23:22;;;;;;;32.03;17.90;;;1.30;99.90;;;;;;5057012;28;20373;-81
2022/02/27 08:25:49;;;;;;;46.30;19.75;;;1.40;99.90;;;;;;5073570;28;20858;-82
2022/02/27 08:28:16;;;;;;;64.95;20.65;;;1.30;99.90;;;;;;5054554;28;20370;-83
2022/02/27 08:30:42;;;;;;;37.45;20.23;;;1.20;99.90;;;;;;5073904;28;20366;-85
2022/02/27 08:33:08;;;;;;;30.75;18.00;;;1.20;99.90;;;;;;5072963;28;20370;-83
2022/02/27 08:35:34;;;;;;;43.60;19.13;;;1.50;99.90;;;;;;5057460;28;20382;-84
2022/02/27 08:38:06;;;;;;;26.63;17.73;;;1.70;99.90;;;;;;5057864;28;20401;-83
2022/02/27 08:40:32;;;;;;;32.78;19.65;;;1.70;99.90;;;;;;5072519;28;20401;-84
2022/02/27 08:43:00;;;;;;;30.48;18.75;;;2.00;99.90;;;;;;5071830;28;20396;-88
2022/02/27 08:45:28;;;;;;;35.33;19.73;;;1.80;99.90;;;;;;5055708;28;20712;-82
2022/02/27 08:47:54;;;;;;;29.73;19.45;;;1.90;99.90;;;;;;5073222;28;20441;-86
2022/02/27 08:50:20;;;;;;;46.78;19.48;;;1.90;99.90;;;;;;5056149;28;20461;-83
2022/02/27 08:52:49;;;;;;;48.17;21.20;;;2.10;99.90;;;;;;5074624;28;20397;-83
2022/02/27 08:55:17;;;;;;;55.40;21.67;;;2.10;99.90;;;;;;5075771;28;20390;-83
2022/02/27 08:57:44;;;;;;;38.83;19.88;;;2.10;99.90;;;;;;5072959;28;20378;-81
2022/02/27 09:00:12;;;;;;;53.53;22.17;;;2.20;99.90;;;;;;5054418;28;20915;-86
2022/02/27 09:02:38;;;;;;;84.32;23.60;;;2.00;99.90;;;;;;5053248;28;20389;-84
2022/02/27 09:05:05;;;;;;;79.25;23.45;;;2.00;99.90;;;;;;5053674;28;20374;-82
2022/02/27 09:07:31;;;;;;;60.67;22.90;;;1.80;99.90;;;;;;5052570;28;20386;-82
2022/02/27 09:09:57;;;;;;;42.28;23.25;;;1.60;99.90;;;;;;5052923;28;20436;-83
2022/02/27 09:12:23;;;;;;;60.40;23.38;;;1.60;99.90;;;;;;5071553;28;20423;-85
2022/02/27 09:14:52;;;;;;;47.65;23.10;;;1.70;99.90;;;;;;5062222;28;20874;-82
2022/02/27 09:17:19;;;;;;;64.18;25.65;;;1.80;99.90;;;;;;5072692;28;20906;-82
2022/02/27 09:19:45;;;;;;;62.53;24.70;;;1.80;99.90;;;;;;5050966;28;20402;-85
2022/02/27 09:22:11;;;;;;;55.10;22.80;;;1.80;99.90;;;;;;5054487;28;20499;-85
2022/02/27 09:24:37;;;;;;;62.77;23.30;;;1.90;99.90;;;;;;5052911;28;20461;-83
2022/02/27 09:27:03;;;;;;;56.67;23.53;;;2.00;99.90;;;;;;5073820;28;20432;-83
2022/02/27 09:29:29;;;;;;;53.88;24.13;;;2.20;99.90;;;;;;5054549;28;20443;-81
2022/02/27 09:31:56;;;;;;;64.40;25.60;;;2.20;99.90;;;;;;5072893;28;20791;-81
2022/02/27 09:34:23;;;;;;;57.35;25.73;;;2.10;99.90;;;;;;5055850;28;20457;-85
2022/02/27 09:36:49;;;;;;;50.25;24.83;;;2.10;99.90;;;;;;5056577;28;20410;-83
2022/02/27 09:39:15;;;;;;;46.80;24.08;;;2.40;99.90;;;;;;5055488;28;20397;-83
2022/02/27 09:41:41;;;;;;;50.97;23.80;;;2.60;99.90;;;;;;5054038;28;20422;-82
2022/02/27 09:44:09;;;;;;;38.03;24.40;;;2.90;99.90;;;;;;5054723;28;20385;-83
2022/02/27 09:46:36;;;;;;;39.97;23.08;;;2.80;99.90;;;;;;5076503;28;20394;-84
2022/02/27 09:49:04;;;;;;;34.53;22.40;;;3.10;99.90;;;;;;5074022;28;20451;-83
2022/02/27 09:51:32;;;;;;;47.22;21.80;;;3.30;99.90;;;;;;5052439;28;20386;-83
2022/02/27 09:53:58;;;;;;;52.40;20.48;;;3.60;99.90;;;;;;5055168;28;20405;-85
2022/02/27 09:56:24;;;;;;;37.40;21.98;;;3.70;99.90;;;;;;5051861;28;20409;-84
2022/02/27 09:58:51;;;;;;;32.83;22.75;;;3.10;99.90;;;;;;5074652;28;20371;-83
2022/02/27 10:01:25;;;;;;;39.03;22.83;;;3.20;99.90;;;;;;5053661;28;20448;-83
2022/02/27 10:03:56;;;;;;;46.95;22.17;;;3.40;99.90;;;;;;5056537;28;20463;-82
2022/02/27 10:06:23;;;;;;;49.55;22.83;;;3.20;99.90;;;;;;5041268;28;20430;-86
2022/02/27 10:08:56;;;;;;;28.77;21.85;;;3.30;99.90;;;;;;5070457;28;20378;-85
2022/02/27 10:11:23;;;;;;;35.97;22.65;;;3.50;99.90;;;;;;5034404;28;20829;-84
2022/02/27 10:13:55;;;;;;;32.63;22.63;;;3.60;99.90;;;;;;5054485;28;20397;-82
2022/02/27 10:16:25;;;;;;;31.13;23.20;;;3.70;99.90;;;;;;5032830;28;20443;-82
2022/02/27 10:18:55;;;;;;;29.65;23.20;;;3.90;99.90;;;;;;5044660;28;20480;-83
2022/02/27 10:21:25;;;;;;;29.15;22.95;;;4.10;99.90;;;;;;5069379;28;20457;-83
2022/02/27 10:23:59;;;;;;;28.50;22.35;;;4.30;99.90;;;;;;5053636;28;20398;-83
2022/02/27 10:26:28;;;;;;;29.52;22.45;;;4.50;99.90;;;;;;5045917;28;20386;-83
2022/02/27 10:29:19;;;;;;;27.52;21.92;;;4.90;99.90;;;;;;5043266;28;20949;-87
2022/02/27 10:31:57;;;;;;;27.85;21.80;;;5.30;99.90;;;;;;5049880;28;20795;-86
2022/02/27 10:34:29;;;;;;;25.48;20.92;;;5.50;99.90;;;;;;5068827;28;20382;-87
2022/02/27 10:37:06;;;;;;;27.90;22.30;;;5.30;99.90;;;;;;5050687;28;20382;-84
2022/02/27 10:39:49;;;;;;;28.70;23.73;;;4.90;99.90;;;;;;5068926;28;20515;-83
2022/02/27 10:42:27;;;;;;;30.17;23.55;;;4.60;99.90;;;;;;5050666;28;20904;-82
2022/02/27 10:44:56;;;;;;;32.80;25.65;;;4.20;99.90;;;;;;5064416;28;20385;-84
2022/02/27 10:47:24;;;;;;;30.90;25.42;;;3.90;99.90;;;;;;5051074;28;20416;-82
2022/02/27 10:49:54;;;;;;;30.52;25.30;;;3.90;99.90;;;;;;5075869;28;20385;-83
2022/02/27 10:52:24;;;;;;;29.98;24.40;;;4.10;99.90;;;;;;5072675;28;20401;-85
2022/02/27 10:54:53;;;;;;;30.10;25.45;;;4.50;99.90;;;;;;5065502;28;20429;-83
2022/02/27 10:57:31;;;;;;;28.85;23.63;;;4.80;99.90;;;;;;5068121;28;20413;-84
2022/02/27 11:00:38;;;;;;;26.63;23.27;;;4.90;99.90;;;;;;5058604;28;20397;-84
2022/02/27 11:03:09;;;;;;;27.58;23.65;;;4.80;99.90;;;;;;5043820;28;20390;-84
2022/02/27 11:05:38;;;;;;;29.87;24.00;;;4.90;99.90;;;;;;5053019;28;20772;-84
2022/02/27 11:08:09;;;;;;;27.33;23.05;;;4.90;99.90;;;;;;5045222;28;20454;-83
2022/02/27 11:10:41;;;;;;;31.53;24.97;;;4.90;99.90;;;;;;5054028;28;20393;-84
2022/02/27 11:13:10;;;;;;;29.52;24.52;;;4.90;99.90;;;;;;5054329;28;20398;-83
2022/02/27 11:15:39;;;;;;;30.42;25.30;;;5.00;99.90;;;;;;5072819;28;20872;-85
2022/02/27 11:18:11;;;;;;;31.00;24.90;;;4.90;99.90;;;;;;5058484;28;21200;-83
2022/02/27 11:20:37;;;;;;;31.77;26.45;;;5.10;99.90;;;;;;5071995;28;20391;-82
2022/02/27 11:23:04;;;;;;;30.25;24.85;;;4.90;99.90;;;;;;5073475;28;20465;-84
2022/02/27 11:25:30;;;;;;;28.92;23.75;;;5.10;99.90;;;;;;5054396;28;20390;-83
2022/02/27 11:28:03;;;;;;;28.10;24.88;;;5.30;99.90;;;;;;5074406;28;20456;-85
2022/02/27 11:30:32;;;;;;;26.13;22.10;;;5.20;99.90;;;;;;5074412;28;20425;-82
2022/02/27 11:33:05;;;;;;;27.20;22.40;;;5.40;99.90;;;;;;5054219;28;20876;-82
2022/02/27 11:35:38;;;;;;;27.55;22.40;;;5.30;99.90;;;;;;5048545;28;20469;-85
2022/02/27 11:38:09;;;;;;;27.13;22.23;;;5.50;99.90;;;;;;5069605;28;21211;-88
2022/02/27 11:40:56;;;;;;;27.40;22.75;;;5.60;99.90;;;;;;5053373;28;20446;-86
2022/02/27 11:43:40;;;;;;;29.10;23.58;;;5.60;99.90;;;;;;5053692;28;20429;-85
2022/02/27 11:46:08;;;;;;;25.20;21.70;;;5.60;99.90;;;;;;5051152;28;20382;-82
2022/02/27 11:48:58;;;;;;;24.80;20.93;;;5.80;99.90;;;;;;5051645;28;20401;-82
2022/02/27 11:51:36;;;;;;;25.45;21.75;;;5.80;99.90;;;;;;5050070;28;20426;-83
2022/02/27 11:54:17;;;;;;;23.83;20.33;;;5.70;99.90;;;;;;5049511;28;20481;-84
2022/02/27 11:57:03;;;;;;;24.65;20.08;;;5.90;99.90;;;;;;5047365;28;20393;-88
2022/02/27 11:59:47;;;;;;;24.73;21.33;;;6.10;99.90;;;;;;5068462;28;20373;-84
2022/02/27 12:02:30;;;;;;;23.75;20.48;;;6.10;99.90;;;;;;5069766;28;20413;-83
2022/02/27 12:04:57;;;;;;;23.65;20.80;;;6.00;99.90;;;;;;5055783;28;20410;-83
2022/02/27 12:07:24;;;;;;;26.08;22.40;;;5.90;99.90;;;;;;5052099;28;20389;-85
2022/02/27 12:09:52;;;;;;;27.10;22.07;;;5.90;99.90;;;;;;5051174;28;20405;-82
2022/02/27 12:12:36;;;;;;;26.37;20.73;;;6.00;99.90;;;;;;5050551;28;20394;-84
2022/02/27 12:15:36;;;;;;;25.05;22.40;;;6.00;99.90;;;;;;5071358;28;20402;-82
2022/02/27 12:18:08;;;;;;;29.63;23.30;;;6.00;99.90;;;;;;5044794;28;20468;-82
2022/02/27 12:20:51;;;;;;;25.67;21.92;;;6.00;99.90;;;;;;5053841;28;20460;-85
2022/02/27 12:23:31;;;;;;;25.90;21.55;;;5.90;99.90;;;;;;5070822;28;20386;-85
2022/02/27 12:26:03;;;;;;;27.33;22.30;;;5.80;99.90;;;;;;5045762;28;20745;-83
2022/02/27 12:28:48;;;;;;;27.55;22.15;;;6.00;99.90;;;;;;5064882;28;20390;-82
2022/02/27 12:31:25;;;;;;;23.77;20.77;;;5.90;99.90;;;;;;5043782;28;20388;-82
2022/02/27 12:33:52;;;;;;;25.10;21.08;;;5.90;99.90;;;;;;5052238;28;20441;-83
2022/02/27 12:36:33;;;;;;;24.98;20.85;;;5.90;99.90;;;;;;5050190;28;21033;-84